createdAt,value
2023-01-13T00:00:09.000Z,23.73
2023-01-13T00:02:34.000Z,21.23
2023-01-13T00:04:59.000Z,23.8
2023-01-13T00:07:25.000Z,24.83
2023-01-13T00:09:51.000Z,22.47
2023-01-13T00:12:17.000Z,21.05
2023-01-13T00:14:43.000Z,23.25
2023-01-13T00:17:08.000Z,25
2023-01-13T00:19:34.000Z,22.52
2023-01-13T00:22:01.000Z,23.47
2023-01-13T00:24:26.000Z,20.27
2023-01-13T00:26:51.000Z,18.73
2023-01-13T00:29:16.000Z,20.07
2023-01-13T00:31:42.000Z,22.43
2023-01-13T00:34:11.000Z,18.42
2023-01-13T00:36:34.000Z,19.32
2023-01-13T00:38:59.000Z,20.53
2023-01-13T00:41:25.000Z,19.57
2023-01-13T00:43:52.000Z,21.6
2023-01-13T00:46:17.000Z,17.82
2023-01-13T00:48:43.000Z,19.2
2023-01-13T00:51:08.000Z,21.07
2023-01-13T00:53:34.000Z,20.33
2023-01-13T00:56:00.000Z,19.48
2023-01-13T00:58:25.000Z,21.07
2023-01-13T01:00:54.000Z,26.17
2023-01-13T01:03:16.000Z,22.73
2023-01-13T01:05:42.000Z,22.52
2023-01-13T01:08:09.000Z,20.73
2023-01-13T01:10:34.000Z,25.77
2023-01-13T01:12:59.000Z,24.05
2023-01-13T01:15:25.000Z,23.77
2023-01-13T01:17:50.000Z,23.47
2023-01-13T01:20:16.000Z,21.83
2023-01-13T01:22:42.000Z,27.73
2023-01-13T01:25:08.000Z,24.43
2023-01-13T01:27:33.000Z,29.6
2023-01-13T01:30:00.000Z,21.43
2023-01-13T01:32:25.000Z,24.95
2023-01-13T01:34:51.000Z,25.05
2023-01-13T01:37:17.000Z,21.9
2023-01-13T01:39:42.000Z,21.63
2023-01-13T01:42:08.000Z,20.85
2023-01-13T01:44:33.000Z,20.5
2023-01-13T01:47:00.000Z,24.73
2023-01-13T01:49:26.000Z,21.23
2023-01-13T01:51:51.000Z,24.6
2023-01-13T01:54:18.000Z,19.63
2023-01-13T01:56:43.000Z,19.67
2023-01-13T01:59:08.000Z,22.3
2023-01-13T02:01:45.000Z,24.3
2023-01-13T02:04:00.000Z,21.7
2023-01-13T02:06:25.000Z,24.1
2023-01-13T02:08:51.000Z,20.23
2023-01-13T02:11:17.000Z,25.17
2023-01-13T02:13:42.000Z,21.03
2023-01-13T02:16:08.000Z,18.1
2023-01-13T02:18:34.000Z,16.15
2023-01-13T02:20:59.000Z,13.18
2023-01-13T02:23:25.000Z,13.17
2023-01-13T02:25:51.000Z,15.47
2023-01-13T02:28:18.000Z,17.2
2023-01-13T02:30:42.000Z,16.3
2023-01-13T02:33:08.000Z,18.92
2023-01-13T02:35:35.000Z,13.98
2023-01-13T02:37:59.000Z,18.03
2023-01-13T02:40:26.000Z,14.8
2023-01-13T02:42:52.000Z,17.9
2023-01-13T02:45:17.000Z,15.45
2023-01-13T02:47:45.000Z,20.65
2023-01-13T02:50:13.000Z,15.68
2023-01-13T02:52:36.000Z,14.5
2023-01-13T02:55:01.000Z,17.75
2023-01-13T02:57:27.000Z,14.3
2023-01-13T02:59:53.000Z,17.2
2023-01-13T03:02:20.000Z,18.1
2023-01-13T03:04:45.000Z,15.07
2023-01-13T03:07:11.000Z,17.45
2023-01-13T03:09:37.000Z,15.05
2023-01-13T03:12:03.000Z,15.7
2023-01-13T03:14:28.000Z,19.67
2023-01-13T03:16:54.000Z,14.35
2023-01-13T03:19:21.000Z,163.35
2023-01-13T03:21:46.000Z,139.8
2023-01-13T03:24:12.000Z,79.3
2023-01-13T03:26:38.000Z,44.48
2023-01-13T03:29:04.000Z,70.97
2023-01-13T03:31:29.000Z,56.67
2023-01-13T03:34:01.000Z,47.6
2023-01-13T03:36:22.000Z,39.1
2023-01-13T03:38:48.000Z,28.2
2023-01-13T03:41:14.000Z,30.17
2023-01-13T03:43:40.000Z,26.47
2023-01-13T03:46:05.000Z,22.47
2023-01-13T03:48:32.000Z,22.17
2023-01-13T03:50:57.000Z,20.08
2023-01-13T03:53:23.000Z,24.07
2023-01-13T03:55:48.000Z,21.63
2023-01-13T03:58:15.000Z,22.52
2023-01-13T04:00:48.000Z,24.87
2023-01-13T04:03:06.000Z,19.35
2023-01-13T04:05:33.000Z,18.77
2023-01-13T04:07:58.000Z,21.7
2023-01-13T04:10:24.000Z,20.6
2023-01-13T04:12:49.000Z,16.43
2023-01-13T04:15:16.000Z,18.82
2023-01-13T04:17:42.000Z,16.77
2023-01-13T04:20:08.000Z,16.57
2023-01-13T04:22:32.000Z,17.1
2023-01-13T04:24:59.000Z,18.07
2023-01-13T04:27:25.000Z,16.03
2023-01-13T04:29:50.000Z,15.8
2023-01-13T04:32:16.000Z,15.15
2023-01-13T04:34:42.000Z,15.18
2023-01-13T04:37:08.000Z,16.87
2023-01-13T04:39:35.000Z,15.2
2023-01-13T04:41:59.000Z,17.63
2023-01-13T04:44:25.000Z,17.9
2023-01-13T04:46:51.000Z,16.6
2023-01-13T04:49:16.000Z,18.77
2023-01-13T04:51:42.000Z,17.7
2023-01-13T04:54:09.000Z,14.53
2023-01-13T04:56:34.000Z,21.57
2023-01-13T04:59:00.000Z,14.9
2023-01-13T05:01:33.000Z,15.63
2023-01-13T05:03:53.000Z,20.05
2023-01-13T05:06:18.000Z,20.48
2023-01-13T05:08:44.000Z,18.07
2023-01-13T05:11:09.000Z,18.02
2023-01-13T05:13:35.000Z,14.55
2023-01-13T05:16:01.000Z,14.43
2023-01-13T05:18:27.000Z,14.53
2023-01-13T05:20:53.000Z,14.47
2023-01-13T05:23:19.000Z,12.33
2023-01-13T05:25:44.000Z,16.1
2023-01-13T05:28:10.000Z,13.3
2023-01-13T05:30:35.000Z,15.48
2023-01-13T05:33:01.000Z,13.57
2023-01-13T05:35:26.000Z,11.57
2023-01-13T05:37:53.000Z,11.75
2023-01-13T05:40:19.000Z,19.7
2023-01-13T05:42:48.000Z,23.07
2023-01-13T05:43:05.000Z,24.18
2023-01-13T05:45:16.000Z,26.23
2023-01-13T05:47:39.000Z,29.55
2023-01-13T05:50:04.000Z,34.35
2023-01-13T05:52:30.000Z,37
2023-01-13T05:54:55.000Z,35.92
2023-01-13T05:57:21.000Z,40.48
2023-01-13T06:00:00.000Z,42.15
2023-01-13T06:02:59.000Z,45.45
2023-01-13T06:04:52.000Z,43.25
2023-01-13T06:07:06.000Z,40.3
2023-01-13T06:09:33.000Z,39.13
2023-01-13T06:11:58.000Z,41.07
2023-01-13T06:14:25.000Z,46.17
2023-01-13T06:16:50.000Z,40.45
2023-01-13T06:19:18.000Z,43.52
2023-01-13T06:21:42.000Z,39.58
2023-01-13T06:24:09.000Z,41.6
2023-01-13T06:26:34.000Z,36.07
2023-01-13T06:28:59.000Z,40.43
2023-01-13T06:31:26.000Z,38.23
2023-01-13T06:33:51.000Z,36.47
2023-01-13T06:36:17.000Z,39.73
2023-01-13T06:38:44.000Z,35.58
2023-01-13T06:41:09.000Z,34
2023-01-13T06:43:34.000Z,34.43
2023-01-13T06:46:01.000Z,36.58
2023-01-13T06:48:25.000Z,39.53
2023-01-13T06:50:52.000Z,40.17
2023-01-13T06:53:18.000Z,39.27
2023-01-13T06:55:43.000Z,37.95
2023-01-13T06:58:09.000Z,34.57
2023-01-13T07:00:44.000Z,34.97
2023-01-13T07:03:00.000Z,36.63
2023-01-13T07:05:26.000Z,36.7
2023-01-13T07:07:51.000Z,33.13
2023-01-13T07:10:18.000Z,33.4
2023-01-13T07:12:43.000Z,32.7
2023-01-13T07:15:10.000Z,28.3
2023-01-13T07:17:35.000Z,29.67
2023-01-13T07:20:00.000Z,31.07
2023-01-13T07:22:26.000Z,28.32
2023-01-13T07:24:52.000Z,30.85
2023-01-13T07:27:18.000Z,30.9
2023-01-13T07:29:43.000Z,31.27
2023-01-13T07:32:10.000Z,27.42
2023-01-13T07:34:36.000Z,29.98
2023-01-13T07:37:01.000Z,28.5
2023-01-13T07:39:28.000Z,27.4
2023-01-13T07:41:53.000Z,27.07
2023-01-13T07:44:18.000Z,25.83
2023-01-13T07:46:45.000Z,26.7
2023-01-13T07:49:11.000Z,27.37
2023-01-13T07:51:37.000Z,25.75
2023-01-13T07:54:02.000Z,29.37
2023-01-13T07:56:28.000Z,31.17
2023-01-13T07:58:53.000Z,36
2023-01-13T08:01:35.000Z,52.98
2023-01-13T08:03:46.000Z,70.72
2023-01-13T08:06:12.000Z,68.4
2023-01-13T08:08:36.000Z,62
2023-01-13T08:11:02.000Z,49.83
2023-01-13T08:13:28.000Z,42.97
2023-01-13T08:15:54.000Z,42.78
2023-01-13T08:18:20.000Z,38.65
2023-01-13T08:20:45.000Z,33.9
2023-01-13T08:23:11.000Z,35.27
2023-01-13T08:25:37.000Z,37.23
2023-01-13T08:28:02.000Z,33.8
2023-01-13T08:30:29.000Z,33
2023-01-13T08:32:55.000Z,37.58
2023-01-13T08:35:21.000Z,34.25
2023-01-13T08:37:46.000Z,36.43
2023-01-13T08:40:14.000Z,34.57
2023-01-13T08:42:37.000Z,32.9
2023-01-13T08:45:03.000Z,36.15
2023-01-13T08:47:29.000Z,36
2023-01-13T08:49:55.000Z,41.8
2023-01-13T08:52:23.000Z,33.4
2023-01-13T08:54:47.000Z,32.48
2023-01-13T08:57:12.000Z,36.45
2023-01-13T08:59:44.000Z,39.35
2023-01-13T09:02:05.000Z,37.63
2023-01-13T09:04:30.000Z,41.57
2023-01-13T09:06:55.000Z,45.6
2023-01-13T09:09:21.000Z,41
2023-01-13T09:11:48.000Z,46.35
2023-01-13T09:14:14.000Z,46.83
2023-01-13T09:16:39.000Z,43.4
2023-01-13T09:19:04.000Z,50.47
2023-01-13T09:21:30.000Z,49.93
2023-01-13T09:23:57.000Z,47.47
2023-01-13T09:26:22.000Z,44.1
2023-01-13T09:28:47.000Z,42.53
2023-01-13T09:31:13.000Z,43.65
2023-01-13T09:33:38.000Z,40.52
2023-01-13T09:36:05.000Z,44.33
2023-01-13T09:38:32.000Z,50.93
2023-01-13T09:40:56.000Z,40.23
2023-01-13T09:43:21.000Z,46.55
2023-01-13T09:45:47.000Z,46.28
2023-01-13T09:48:14.000Z,54.73
2023-01-13T09:50:39.000Z,57.63
2023-01-13T09:53:07.000Z,53.33
2023-01-13T09:55:31.000Z,48.58
2023-01-13T09:57:56.000Z,42.67
2023-01-13T10:00:31.000Z,42.73
2023-01-13T10:02:47.000Z,40.5
2023-01-13T10:05:13.000Z,29.25
2023-01-13T10:07:40.000Z,26.67
2023-01-13T10:10:05.000Z,32.4
2023-01-13T10:12:31.000Z,29.27
2023-01-13T10:14:56.000Z,25.2
2023-01-13T10:17:23.000Z,26.62
2023-01-13T10:19:49.000Z,30.1
2023-01-13T10:22:14.000Z,35.2
2023-01-13T10:24:40.000Z,29.85
2023-01-13T10:27:06.000Z,34.98
2023-01-13T10:29:32.000Z,35.65
2023-01-13T10:31:57.000Z,38.53
2023-01-13T10:34:23.000Z,44.87
2023-01-13T10:36:49.000Z,42.62
2023-01-13T10:39:14.000Z,39.03
2023-01-13T10:41:40.000Z,35.85
2023-01-13T10:44:06.000Z,39.2
2023-01-13T10:46:32.000Z,32.27
2023-01-13T10:49:00.000Z,29.33
2023-01-13T10:51:24.000Z,30.17
2023-01-13T10:53:50.000Z,31.07
2023-01-13T10:56:17.000Z,30
2023-01-13T10:58:41.000Z,30.23
2023-01-13T11:01:11.000Z,29.72
2023-01-13T11:03:38.000Z,27.25
2023-01-13T11:06:02.000Z,31.2
2023-01-13T11:08:30.000Z,32.87
2023-01-13T11:10:54.000Z,33.42
2023-01-13T11:13:20.000Z,33.25
2023-01-13T11:15:47.000Z,30.95
2023-01-13T11:18:12.000Z,30.27
2023-01-13T11:20:42.000Z,36.37
2023-01-13T11:23:03.000Z,37.67
2023-01-13T11:25:30.000Z,39.18
2023-01-13T11:27:56.000Z,38.4
2023-01-13T11:30:23.000Z,35.17
2023-01-13T11:32:49.000Z,34
2023-01-13T11:35:14.000Z,36.03
2023-01-13T11:37:40.000Z,37.97
2023-01-13T11:40:07.000Z,38.2
2023-01-13T11:42:32.000Z,38.23
2023-01-13T11:44:57.000Z,39.23
2023-01-13T11:47:24.000Z,43.07
2023-01-13T11:49:49.000Z,41.9
2023-01-13T11:52:15.000Z,41.83
2023-01-13T11:54:40.000Z,46.02
2023-01-13T11:57:07.000Z,47.95
2023-01-13T11:59:35.000Z,47.43
2023-01-13T12:02:40.000Z,45.3
2023-01-13T12:04:35.000Z,48.27
2023-01-13T12:06:51.000Z,45.83
2023-01-13T12:09:16.000Z,46.5
2023-01-13T12:11:42.000Z,45.2
2023-01-13T12:14:07.000Z,48.17
2023-01-13T12:16:34.000Z,45.55
2023-01-13T12:18:59.000Z,50.55
2023-01-13T12:21:26.000Z,46.8
2023-01-13T12:23:52.000Z,45.03
2023-01-13T12:26:18.000Z,42.83
2023-01-13T12:28:44.000Z,45.35
2023-01-13T12:31:10.000Z,38.23
2023-01-13T12:33:36.000Z,41.68
2023-01-13T12:36:02.000Z,38.57
2023-01-13T12:38:30.000Z,36.8
2023-01-13T12:40:59.000Z,39
2023-01-13T12:43:20.000Z,30.4
2023-01-13T12:45:45.000Z,30.2
2023-01-13T12:48:12.000Z,29.03
2023-01-13T12:50:39.000Z,30.7
2023-01-13T12:53:04.000Z,29.37
2023-01-13T12:55:29.000Z,25.6
2023-01-13T12:57:55.000Z,26.52
2023-01-13T13:00:29.000Z,25.45
2023-01-13T13:02:47.000Z,28.15
2023-01-13T13:05:15.000Z,25.27
2023-01-13T13:07:41.000Z,21.13
2023-01-13T13:10:06.000Z,24.18
2023-01-13T13:12:33.000Z,23.83
2023-01-13T13:14:58.000Z,22.13
2023-01-13T13:17:23.000Z,26.62
2023-01-13T13:19:52.000Z,25.5
2023-01-13T13:22:17.000Z,24.2
2023-01-13T13:24:41.000Z,25.17
2023-01-13T13:27:08.000Z,24.57
2023-01-13T13:29:34.000Z,26.6
2023-01-13T13:32:00.000Z,24.98
2023-01-13T13:34:28.000Z,24.32
2023-01-13T13:36:53.000Z,26.15
2023-01-13T13:39:19.000Z,25.43
2023-01-13T13:41:44.000Z,26.73
2023-01-13T13:44:11.000Z,25.32
2023-01-13T13:46:36.000Z,26.68
2023-01-13T13:49:04.000Z,26.1
2023-01-13T13:51:29.000Z,23.1
2023-01-13T13:53:55.000Z,26.77
2023-01-13T13:56:20.000Z,28.92
2023-01-13T13:58:49.000Z,27.15
2023-01-13T14:01:14.000Z,28.38
2023-01-13T14:03:39.000Z,30.67
2023-01-13T14:06:07.000Z,28.8
2023-01-13T14:08:34.000Z,30
2023-01-13T14:11:01.000Z,28.07
2023-01-13T14:13:27.000Z,29.45
2023-01-13T14:15:52.000Z,33.93
2023-01-13T14:18:19.000Z,29.77
2023-01-13T14:20:48.000Z,29.85
2023-01-13T14:23:13.000Z,31.63
2023-01-13T14:25:44.000Z,33.48
2023-01-13T14:28:10.000Z,30.43
2023-01-13T14:30:37.000Z,33.6
2023-01-13T14:33:04.000Z,32.55
2023-01-13T14:35:31.000Z,32.98
2023-01-13T14:38:03.000Z,32.28
2023-01-13T14:40:28.000Z,33.8
2023-01-13T14:42:58.000Z,32.4
2023-01-13T14:45:26.000Z,35.4
2023-01-13T14:47:52.000Z,32.6
2023-01-13T14:50:18.000Z,33.6
2023-01-13T14:52:45.000Z,34.85
2023-01-13T14:55:12.000Z,37.1
2023-01-13T14:57:39.000Z,37.93
2023-01-13T15:00:07.000Z,36.83
2023-01-13T15:02:32.000Z,40.12
2023-01-13T15:04:57.000Z,37.95
2023-01-13T15:07:23.000Z,36.08
2023-01-13T15:09:50.000Z,42.58
2023-01-13T15:12:15.000Z,35.98
2023-01-13T15:14:42.000Z,38.25
2023-01-13T15:17:23.000Z,40.43
2023-01-13T15:20:09.000Z,36.73
2023-01-13T15:22:01.000Z,40.45
2023-01-13T15:24:25.000Z,37.98
2023-01-13T15:26:52.000Z,40.6
2023-01-13T15:29:17.000Z,38.4
2023-01-13T15:31:42.000Z,37.43
2023-01-13T15:34:09.000Z,40.43
2023-01-13T15:36:36.000Z,41.13
2023-01-13T15:39:01.000Z,42.37
2023-01-13T15:41:27.000Z,39.5
2023-01-13T15:43:54.000Z,37.8
2023-01-13T15:46:19.000Z,37.5
2023-01-13T15:48:45.000Z,39.35
2023-01-13T15:51:13.000Z,40.63
2023-01-13T15:53:37.000Z,36.48
2023-01-13T15:56:04.000Z,42.2
2023-01-13T15:58:29.000Z,37.23
2023-01-13T16:01:29.000Z,36.63
2023-01-13T16:03:59.000Z,34.25
2023-01-13T16:05:46.000Z,36.53
2023-01-13T16:08:15.000Z,36.9
2023-01-13T16:10:38.000Z,36.88
2023-01-13T16:13:03.000Z,34.85
2023-01-13T16:15:30.000Z,34.33
2023-01-13T16:17:55.000Z,31.1
2023-01-13T16:20:22.000Z,34
2023-01-13T16:22:48.000Z,31.55
2023-01-13T16:25:13.000Z,35.03
2023-01-13T16:27:39.000Z,33.43
2023-01-13T16:30:07.000Z,28.9
2023-01-13T16:32:31.000Z,36.4
2023-01-13T16:34:56.000Z,33.67
2023-01-13T16:37:22.000Z,31.62
2023-01-13T16:39:48.000Z,32.63
2023-01-13T16:42:16.000Z,32.13
2023-01-13T16:44:40.000Z,27.75
2023-01-13T16:47:09.000Z,32.23
2023-01-13T16:49:33.000Z,35.5
2023-01-13T16:51:57.000Z,34.3
2023-01-13T16:54:23.000Z,32.7
2023-01-13T16:56:48.000Z,33.28
2023-01-13T16:59:17.000Z,33.58
2023-01-13T17:01:43.000Z,37.4
2023-01-13T17:04:07.000Z,31.55
2023-01-13T17:06:32.000Z,32.95
2023-01-13T17:08:58.000Z,33.57
2023-01-13T17:11:26.000Z,37.07
2023-01-13T17:13:50.000Z,33.13
2023-01-13T17:16:15.000Z,34.15
2023-01-13T17:18:42.000Z,37.48
2023-01-13T17:21:10.000Z,33.8
2023-01-13T17:23:34.000Z,33.6
2023-01-13T17:25:58.000Z,33
2023-01-13T17:28:25.000Z,33.4
2023-01-13T17:30:51.000Z,29.27
2023-01-13T17:33:18.000Z,32.93
2023-01-13T17:35:42.000Z,28.32
2023-01-13T17:38:09.000Z,33.1
2023-01-13T17:40:38.000Z,31.63
2023-01-13T17:43:00.000Z,34.57
2023-01-13T17:45:26.000Z,36.6
2023-01-13T17:47:52.000Z,36.88
2023-01-13T17:50:29.000Z,34.6
2023-01-13T17:52:44.000Z,32.33
2023-01-13T17:55:09.000Z,35.3
2023-01-13T17:57:34.000Z,34.83
2023-01-13T18:00:00.000Z,36.6
2023-01-13T18:02:29.000Z,36.2
2023-01-13T18:04:53.000Z,35.98
2023-01-13T18:07:19.000Z,35.55
2023-01-13T18:09:44.000Z,39.65
2023-01-13T18:12:09.000Z,36.47
2023-01-13T18:14:35.000Z,34.8
2023-01-13T18:17:01.000Z,36.53
2023-01-13T18:19:27.000Z,32.03
2023-01-13T18:21:53.000Z,41.98
2023-01-13T18:24:18.000Z,38.53
2023-01-13T18:26:45.000Z,32.93
2023-01-13T18:29:12.000Z,35.2
2023-01-13T18:31:37.000Z,35.25
2023-01-13T18:34:02.000Z,34.73
2023-01-13T18:36:29.000Z,33.53
2023-01-13T18:38:53.000Z,34.05
2023-01-13T18:41:22.000Z,32.75
2023-01-13T18:43:46.000Z,33.33
2023-01-13T18:46:12.000Z,33.75
2023-01-13T18:48:37.000Z,32.78
2023-01-13T18:51:03.000Z,34.38
2023-01-13T18:53:29.000Z,32.67
2023-01-13T18:55:54.000Z,34.47
2023-01-13T18:58:20.000Z,30.77
2023-01-13T19:00:54.000Z,33.38
2023-01-13T19:03:12.000Z,36.05
2023-01-13T19:05:38.000Z,33.58
2023-01-13T19:08:04.000Z,36.45
2023-01-13T19:10:30.000Z,35.8
2023-01-13T19:12:55.000Z,35.17
2023-01-13T19:15:21.000Z,37
2023-01-13T19:17:46.000Z,40.7
2023-01-13T19:20:14.000Z,40.43
2023-01-13T19:22:39.000Z,38.55
2023-01-13T19:25:04.000Z,36.98
2023-01-13T19:27:30.000Z,36.98
2023-01-13T19:29:56.000Z,34.8
2023-01-13T19:32:22.000Z,39.87
2023-01-13T19:34:47.000Z,37.53
2023-01-13T19:37:15.000Z,38.13
2023-01-13T19:39:44.000Z,35.65
2023-01-13T19:42:05.000Z,36.68
2023-01-13T19:44:30.000Z,33.4
2023-01-13T19:46:56.000Z,31.55
2023-01-13T19:49:25.000Z,30.85
2023-01-13T19:51:48.000Z,29.83
2023-01-13T19:54:14.000Z,30.97
2023-01-13T19:56:40.000Z,32.73
2023-01-13T19:59:09.000Z,33.45
2023-01-13T20:01:42.000Z,31.9
2023-01-13T20:03:57.000Z,31.07
2023-01-13T20:06:23.000Z,32.88
2023-01-13T20:08:50.000Z,29.83
2023-01-13T20:11:15.000Z,32.9
2023-01-13T20:13:42.000Z,30
2023-01-13T20:16:07.000Z,34.48
2023-01-13T20:18:32.000Z,29.65
2023-01-13T20:20:57.000Z,28.83
2023-01-13T20:23:24.000Z,35.05
2023-01-13T20:25:49.000Z,31.07
2023-01-13T20:28:15.000Z,31.17
2023-01-13T20:30:41.000Z,32.03
2023-01-13T20:33:07.000Z,29.8
2023-01-13T20:35:34.000Z,27.1
2023-01-13T20:37:59.000Z,31.12
2023-01-13T20:40:27.000Z,29.75
2023-01-13T20:42:51.000Z,29.5
2023-01-13T20:45:30.000Z,28.7
2023-01-13T20:47:42.000Z,30.57
2023-01-13T20:50:14.000Z,30.65
2023-01-13T20:52:34.000Z,30.88
2023-01-13T20:55:00.000Z,33.92
2023-01-13T20:57:26.000Z,34.18
2023-01-13T20:59:52.000Z,33.13
2023-01-13T21:02:18.000Z,30.62
2023-01-13T21:04:45.000Z,28.27
2023-01-13T21:07:09.000Z,27.43
2023-01-13T21:09:34.000Z,29.52
2023-01-13T21:12:00.000Z,29.77
2023-01-13T21:14:27.000Z,31.02
2023-01-13T21:16:52.000Z,28.6
2023-01-13T21:19:19.000Z,25.15
2023-01-13T21:21:43.000Z,26.33
2023-01-13T21:24:10.000Z,26.87
2023-01-13T21:26:36.000Z,21.43
2023-01-13T21:29:01.000Z,24.9
2023-01-13T21:31:27.000Z,25.65
2023-01-13T21:33:52.000Z,25.57
2023-01-13T21:36:19.000Z,22.4
2023-01-13T21:38:44.000Z,23.17
2023-01-13T21:41:10.000Z,21.5
2023-01-13T21:43:35.000Z,21.77
2023-01-13T21:46:01.000Z,20.92
2023-01-13T21:48:29.000Z,19.95
2023-01-13T21:50:53.000Z,22.53
2023-01-13T21:53:19.000Z,20.77
2023-01-13T21:55:44.000Z,19.05
2023-01-13T21:58:12.000Z,17.85
2023-01-13T22:00:47.000Z,20.97
2023-01-13T22:03:03.000Z,20.47
2023-01-13T22:05:27.000Z,19.93
2023-01-13T22:07:53.000Z,23.05
2023-01-13T22:10:23.000Z,23.57
2023-01-13T22:12:44.000Z,21.5
2023-01-13T22:15:10.000Z,21.55
2023-01-13T22:17:39.000Z,18.17
2023-01-13T22:20:14.000Z,19.33
2023-01-13T22:22:28.000Z,18.2
2023-01-13T22:24:54.000Z,21.02
2023-01-13T22:27:19.000Z,18.93
2023-01-13T22:29:45.000Z,20.7
2023-01-13T22:32:12.000Z,21.15
2023-01-13T22:34:37.000Z,16.52
2023-01-13T22:37:03.000Z,17.53
2023-01-13T22:39:28.000Z,17.1
2023-01-13T22:42:06.000Z,20.07
2023-01-13T22:44:21.000Z,17.7
2023-01-13T22:46:46.000Z,18.57
2023-01-13T22:49:12.000Z,21.37
2023-01-13T22:51:38.000Z,20.2
2023-01-13T22:54:03.000Z,19.67
2023-01-13T22:56:29.000Z,19.6
2023-01-13T22:58:55.000Z,19.52
2023-01-13T23:01:40.000Z,19.17
2023-01-13T23:03:46.000Z,19.9
2023-01-13T23:06:11.000Z,21.73
2023-01-13T23:08:37.000Z,19.65
2023-01-13T23:11:04.000Z,21.5
2023-01-13T23:13:29.000Z,23.07
2023-01-13T23:15:54.000Z,20.93
2023-01-13T23:18:20.000Z,27.2
2023-01-13T23:20:47.000Z,21.8
2023-01-13T23:23:13.000Z,26.27
2023-01-13T23:25:38.000Z,27.48
2023-01-13T23:28:04.000Z,24.72
2023-01-13T23:30:30.000Z,26.37
2023-01-13T23:32:56.000Z,23.9
2023-01-13T23:35:22.000Z,21.4
2023-01-13T23:37:49.000Z,24.27
2023-01-13T23:40:14.000Z,21.5
2023-01-13T23:42:39.000Z,23.03
2023-01-13T23:45:05.000Z,24.1
2023-01-13T23:47:32.000Z,24.65
2023-01-13T23:49:56.000Z,25.92
2023-01-13T23:52:22.000Z,27.02
2023-01-13T23:54:48.000Z,27.4
2023-01-13T23:57:14.000Z,27.48
2023-01-13T23:59:50.000Z,31.48
